Time;durP1;ratioP1;P1;durP2;ratioP2;P2;SDS_P1;SDS_P2;PMS_P1;PMS_P2;Temp;Humidity;BMP_temperature;BMP_pressure;BME280_temperature;BME280_humidity;BME280_pressure;Samples;Min_cycle;Max_cycle;Signal;HPM_P1;HPM_P2
2022/03/26 00:02:30;;;;;;;;;;;;;;;;;;;;;
2022/03/26 00:05:44;;;;;;;;;;;;;;;;;;;;;
2022/03/26 00:09:32;;;;;;;114.90;83.30;;;;;;;6.40;54.38;101447.88;110090;1274;21917;-82
2022/03/26 00:12:52;;;;;;;102.90;78.90;;;;;;;6.38;54.48;101439.33;110118;1276;21927;-82
2022/03/26 00:23:54;;;;;;;97.50;75.20;;;;;;;6.35;55.07;101420.12;109807;1279;22372;-81
2022/03/26 00:30:59;;;;;;;100.90;78.30;;;;;;;6.31;55.50;101423.75;109422;1288;21942;-80
2022/03/26 00:34:40;;;;;;;;;;;;;;;;;;;;;
2022/03/26 00:37:56;;;;;;;;;;;;;;;;;;;;;
2022/03/26 00:40:40;;;;;;;;;;;;;;;;;;;;;
2022/03/26 00:43:21;;;;;;;99.70;75.40;;;;;;;6.14;55.85;101418.86;108570;1294;22003;-82
2022/03/26 00:46:42;;;;;;;;;;;;;;;;;;;;;
2022/03/26 00:50:23;;;;;;;;;;;;;;;;;;;;;
2022/03/26 00:52:42;;;;;;;102.00;76.60;;;;;;;6.10;56.26;101408.84;108617;1291;22010;-80
2022/03/26 00:55:43;;;;;;;98.70;77.30;;;;;;;6.09;56.26;101404.55;108583;1294;22367;-82
2022/03/26 00:58:38;;;;;;;;;;;;;;;;;;;;;
2022/03/26 01:02:00;;;;;;;96.70;75.20;;;;;;;6.04;56.35;101402.63;109619;1287;21827;-83
2022/03/26 01:05:07;;;;;;;97.70;76.90;;;;;;;6.00;56.56;101401.88;109230;1289;21868;-80
2022/03/26 01:09:18;;;;;;;;;;;;;;;;;;;;;
2022/03/26 01:12:16;;;;;;;;;;;;;;;;;;;;;
2022/03/26 01:15:28;;;;;;;106.50;77.10;;;;;;;5.84;57.34;101384.97;109591;1287;21855;-81
2022/03/26 01:19:47;;;;;;;;;;;;;;;;;;;;;
2022/03/26 01:23:09;;;;;;;;;;;;;;;;;;;;;
2022/03/26 01:25:58;;;;;;;97.60;73.70;;;;;;;5.79;57.74;101382.91;109133;1288;21861;-82
2022/03/26 01:29:31;;;;;;;94.30;74.20;;;;;;;5.82;57.76;101384.27;108560;1294;22342;-81
2022/03/26 01:32:59;;;;;;;;;;;;;;;;;;;;;
2022/03/26 01:39:07;;;;;;;96.20;73.20;;;;;;;5.74;58.03;101377.73;109829;1285;21843;-82
2022/03/26 01:43:07;;;;;;;97.80;72.10;;;;;;;5.68;58.23;101373.55;109653;1285;21864;-80
2022/03/26 01:47:03;;;;;;;92.00;71.50;;;;;;;5.61;58.38;101373.17;109623;1284;22347;-82
2022/03/26 01:50:45;;;;;;;91.90;72.60;;;;;;;5.51;58.63;101373.41;110028;1278;21980;-79
2022/03/26 01:54:11;;;;;;;91.60;73.20;;;;;;;5.49;58.65;101376.02;110004;1279;21916;-82
2022/03/26 01:58:20;;;;;;;96.70;72.90;;;;;;;5.42;58.83;101374.57;110064;1276;21966;-80
2022/03/26 02:02:20;;;;;;;;;;;;;;;;;;;;;
2022/03/26 02:06:25;;;;;;;92.40;71.20;;;;;;;5.37;59.21;101371.27;110145;1274;21936;-82
2022/03/26 02:10:18;;;;;;;;;;;;;;;;;;;;;
2022/03/26 02:14:09;;;;;;;;;;;;;;;;;;;;;
2022/03/26 02:17:26;;;;;;;86.10;69.50;;;;;;;5.39;59.74;101375.12;107194;1272;4134953;-81
2022/03/26 02:21:30;;;;;;;82.70;69.30;;;;;;;5.40;59.77;101370.34;109818;1285;21820;-81
2022/03/26 02:24:47;;;;;;;85.60;68.40;;;;;;;5.37;59.84;101366.33;109733;1285;21910;-80
2022/03/26 02:28:16;;;;;;;88.40;69.10;;;;;;;5.36;59.99;101357.19;109557;1286;21868;-81
2022/03/26 02:31:26;;;;;;;;;;;;;;;;;;;;;
2022/03/26 02:34:37;;;;;;;82.90;63.00;;;;;;;5.39;60.64;101356.77;109157;1287;21829;-81
2022/03/26 02:38:28;;;;;;;;;;;;;;;;;;;;;
2022/03/26 02:41:33;;;;;;;79.10;64.80;;;;;;;5.45;60.67;101355.12;109924;1276;21940;-83
2022/03/26 02:44:54;;;;;;;;;;;;;;;;;;;;;
2022/03/26 02:48:18;;;;;;;;;;;;;;;;;;;;;
2022/03/26 02:51:51;;;;;;;76.90;62.70;;;;;;;5.50;60.60;101358.08;110515;1271;22297;-81
2022/03/26 02:54:55;;;;;;;;;;;;;;;;;;;;;
2022/03/26 02:58:26;;;;;;;69.30;57.60;;;;;;;5.54;60.82;101341.21;110075;1276;21933;-84
2022/03/26 03:01:43;;;;;;;;;;;;;;;;;;;;;
2022/03/26 03:05:35;;;;;;;;;;;;;;;;;;;;;
2022/03/26 03:08:20;;;;;;;69.40;57.10;;;;;;;5.54;60.84;101332.48;109993;1279;21849;-82
2022/03/26 03:12:15;;;;;;;;;;;;;;;;;;;;;
2022/03/26 03:15:49;;;;;;;;;;;;;;;;;;;;;
2022/03/26 03:19:04;;;;;;;;;;;;;;;;;;;;;
2022/03/26 03:22:19;;;;;;;;;;;;;;;;;;;;;
2022/03/26 03:25:25;;;;;;;;;;;;;;;;;;;;;
2022/03/26 03:28:10;;;;;;;68.30;54.00;;;;;;;5.49;61.24;101318.15;108983;1280;21979;-83
2022/03/26 03:31:41;;;;;;;;;;;;;;;;;;;;;
2022/03/26 03:35:18;;;;;;;68.30;53.40;;;;;;;5.53;61.44;101316.84;109952;1280;21943;-80
2022/03/26 03:38:56;;;;;;;;;;;;;;;;;;;;;
2022/03/26 03:41:57;;;;;;;68.10;51.50;;;;;;;5.57;61.59;101311.11;110011;1279;21936;-82
2022/03/26 03:45:41;;;;;;;;;;;;;;;;;;;;;
2022/03/26 03:48:39;;;;;;;61.40;51.80;;;;;;;5.61;61.60;101307.46;109931;1282;21834;-81
2022/03/26 03:52:17;;;;;;;62.20;51.90;;;;;;;5.63;61.68;101300.91;109956;1276;21973;-80
2022/03/26 03:55:45;;;;;;;72.40;52.30;;;;;;;5.63;61.76;101298.41;110282;1273;21965;-81
2022/03/26 03:59:06;;;;;;;;;;;;;;;;;;;;;
2022/03/26 04:02:36;;;;;;;65.00;51.50;;;;;;;5.67;61.98;101296.58;110161;1270;21922;-80
2022/03/26 04:05:40;;;;;;;;;;;;;;;;;;;;;
2022/03/26 04:08:50;;;;;;;;;;;;;;;;;;;;;
2022/03/26 04:11:56;;;;;;;;;;;;;;;;;;;;;
2022/03/26 04:15:34;;;;;;;67.60;51.70;;;;;;;5.68;62.04;101293.02;110852;1265;21907;-81
2022/03/26 04:19:13;;;;;;;;;;;;;;;;;;;;;
2022/03/26 04:22:29;;;;;;;60.90;49.10;;;;;;;5.60;62.18;101284.72;110558;1272;21915;-80
2022/03/26 04:25:32;;;;;;;;;;;;;;;;;;;;;
2022/03/26 04:28:40;;;;;;;61.60;47.80;;;;;;;5.56;62.04;101278.16;110535;1270;22467;-81
2022/03/26 04:31:16;;;;;;;59.60;51.70;;;;;;;5.54;62.11;101280.55;110320;1273;21938;-84
2022/03/26 04:34:37;;;;;;;61.40;48.40;;;;;;;5.54;62.33;101276.19;110301;1270;21988;-84
2022/03/26 04:37:36;;;;;;;57.30;45.70;;;;;;;5.58;62.60;101271.56;110036;1278;21878;-83
2022/03/26 04:41:07;;;;;;;;;;;;;;;;;;;;;
2022/03/26 04:44:19;;;;;;;;;;;;;;;;;;;;;
2022/03/26 04:47:22;;;;;;;;;;;;;;;;;;;;;
2022/03/26 04:50:52;;;;;;;62.50;50.20;;;;;;;5.79;62.65;101275.95;110481;1272;22391;-79
2022/03/26 04:54:08;;;;;;;;;;;;;;;5.82;62.70;101277.81;110034;1273;22391;-79
2022/03/26 04:57:39;;;;;;;63.30;45.80;;;;;;;5.76;62.91;101277.77;110582;1269;21955;-80
2022/03/26 05:00:48;;;;;;;53.80;43.90;;;;;;;5.82;62.91;101283.21;110641;1269;21990;-81
2022/03/26 05:04:12;;;;;;;;;;;;;;;;;;;;;
2022/03/26 05:10:36;;;;;;;55.40;43.60;;;;;;;6.00;62.74;101282.48;110721;1261;22412;-82
2022/03/26 05:13:57;;;;;;;;;;;;;;;;;;;;;
2022/03/26 05:17:14;;;;;;;61.60;46.30;;;;;;;6.24;62.89;101290.56;110763;1266;22350;-82
2022/03/26 05:20:31;;;;;;;56.20;43.00;;;;;;;6.26;62.74;101286.61;110589;1267;21931;-83
2022/03/26 05:23:54;;;;;;;52.10;43.20;;;;;;;6.33;62.64;101288.33;110703;1267;22422;-82
2022/03/26 05:26:59;;;;;;;54.00;42.50;;;;;;;6.39;62.36;101290.50;110636;1267;21955;-82
2022/03/26 05:29:51;;;;;;;52.20;44.80;;;;;;;6.43;62.28;101287.93;110504;1267;21988;-82
2022/03/26 05:32:28;;;;;;;52.30;43.00;;;;;;;6.51;62.00;101284.48;110826;1263;21915;-84
2022/03/26 05:35:11;;;;;;;51.30;41.50;;;;;;;6.58;61.98;101282.38;111085;1260;21924;-82
2022/03/26 05:38:19;;;;;;;52.90;43.40;;;;;;;6.69;61.69;101285.00;111315;1261;21933;-83
2022/03/26 05:41:47;;;;;;;55.10;42.70;;;;;;;6.75;61.68;101287.34;111674;1259;21963;-82
2022/03/26 05:45:03;;;;;;;46.40;41.40;;;;;;;6.85;61.65;101289.36;110837;1267;21924;-83
2022/03/26 05:51:48;;;;;;;51.50;39.90;;;;;;;7.02;61.48;101296.95;110593;1270;22722;-82
2022/03/26 05:55:28;;;;;;;48.90;40.40;;;;;;;7.09;61.64;101295.23;110052;1276;21953;-83
2022/03/26 05:58:19;;;;;;;53.80;40.80;;;;;;;7.18;61.48;101289.90;109947;1282;22001;-83
2022/03/26 06:01:57;;;;;;;52.50;42.40;;;;;;;7.29;61.38;101286.38;109945;1281;23036;-81
2022/03/26 06:04:37;;;;;;;53.90;40.60;;;;;;;7.43;61.19;101282.82;109981;1277;21938;-82
2022/03/26 06:07:43;;;;;;;;;;;;;;;;;;;;;
2022/03/26 06:10:43;;;;;;;49.00;39.10;;;;;;;7.72;60.82;101277.64;110140;1276;21937;-81
2022/03/26 06:13:58;;;;;;;52.10;39.90;;;;;;;7.83;60.55;101275.15;110113;1276;21848;-83
2022/03/26 06:16:52;;;;;;;51.50;41.00;;;;;;;7.93;60.24;101266.08;110237;1275;21985;-82
2022/03/26 06:20:26;;;;;;;;;;;;;;;;;;;;;
2022/03/26 06:23:09;;;;;;;47.90;40.70;;;;;;;8.12;60.21;101263.24;110106;1275;22501;-81
2022/03/26 06:26:21;;;;;;;44.30;38.90;;;;;;;8.34;60.47;101262.77;110512;1270;21959;-83
2022/03/26 06:29:33;;;;;;;45.80;37.60;;;;;;;8.64;60.57;101261.11;110611;1269;21928;-81
2022/03/26 06:32:45;;;;;;;44.60;37.60;;;;;;;9.02;60.48;101259.39;110151;1274;22284;-81
2022/03/26 06:35:30;;;;;;;45.90;38.70;;;;;;;9.49;60.27;101258.88;110262;1270;21939;-81
2022/03/26 06:38:22;;;;;;;44.50;36.60;;;;;;;9.91;59.74;101253.45;110723;1267;21914;-81
2022/03/26 06:41:38;;;;;;;41.70;36.20;;;;;;;10.51;59.23;101254.79;110614;1267;21922;-82
2022/03/26 06:44:25;;;;;;;43.80;36.80;;;;;;;11.12;58.16;101255.96;110723;1270;21937;-81
2022/03/26 06:47:43;;;;;;;;;;;;;;;;;;;;;
2022/03/26 06:50:39;;;;;;;43.50;35.50;;;;;;;12.28;55.09;101258.63;110404;1270;21915;-79
2022/03/26 06:54:06;;;;;;;41.90;36.90;;;;;;;12.80;53.57;101254.04;110227;1274;21943;-80
2022/03/26 06:57:11;;;;;;;42.30;34.20;;;;;;;13.25;51.78;101254.02;109942;1282;21907;-80
2022/03/26 07:00:01;;;;;;;41.80;32.40;;;;;;;13.65;50.77;101250.48;109973;1281;21899;-79
2022/03/26 07:02:43;;;;;;;37.10;33.10;;;;;;;13.99;49.70;101247.15;109937;1282;22367;-80
2022/03/26 07:06:18;;;;;;;39.90;31.90;;;;;;;14.43;48.94;101245.64;109824;1284;21957;-79
2022/03/26 07:09:24;;;;;;;38.80;30.20;;;;;;;14.86;47.81;101239.64;109899;1279;21943;-82
2022/03/26 07:12:27;;;;;;;37.30;30.00;;;;;;;15.18;46.69;101234.77;110056;1277;21916;-81
2022/03/26 07:15:31;;;;;;;39.90;29.90;;;;;;;15.56;46.21;101233.02;109956;1283;21837;-82
2022/03/26 07:19:00;;;;;;;;;;;;;;;;;;;;;
2022/03/26 07:22:10;;;;;;;35.30;28.20;;;;;;;16.12;43.80;101230.30;109732;1283;21967;-80
2022/03/26 07:25:08;;;;;;;32.10;27.50;;;;;;;16.31;43.33;101227.13;109614;1285;21844;-79
2022/03/26 07:28:37;;;;;;;39.40;26.00;;;;;;;16.67;43.08;101231.70;108495;1295;21840;-80
2022/03/26 07:31:30;;;;;;;30.40;23.60;;;;;;;16.82;41.89;101231.10;108406;1292;21864;-79
2022/03/26 07:34:19;;;;;;;33.80;25.40;;;;;;;16.91;41.15;101237.16;109548;1283;22379;-80
2022/03/26 07:37:14;;;;;;;35.50;26.90;;;;;;;16.96;40.81;101245.27;109948;1275;22285;-79
2022/03/26 07:39:45;;;;;;;34.20;28.50;;;;;;;16.97;40.57;101240.05;109957;1279;22066;-80
2022/03/26 07:42:49;;;;;;;29.20;24.80;;;;;;;16.93;40.31;101234.75;109980;1279;22336;-80
2022/03/26 07:45:35;;;;;;;52.70;30.20;;;;;;;16.88;40.34;101241.23;110084;1273;21958;-80
2022/03/26 07:48:28;;;;;;;57.40;32.60;;;;;;;16.87;40.05;101237.98;110260;1272;22371;-79
2022/03/26 07:51:06;;;;;;;52.90;33.10;;;;;;;16.80;39.73;101236.16;110273;1273;22343;-79
2022/03/26 07:53:44;;;;;;;56.30;33.10;;;;;;;16.79;39.95;101222.10;110191;1273;22304;-80
2022/03/26 07:56:33;;;;;;;44.50;33.00;;;;;;;16.84;39.92;101225.16;110183;1273;21937;-80
2022/03/26 07:59:40;;;;;;;86.90;37.70;;;;;;;17.04;40.00;101227.16;110649;1268;21983;-80
2022/03/26 08:02:33;;;;;;;;;;;;;;;;;;;;;
2022/03/26 08:05:44;;;;;;;84.90;38.90;;;;;;;17.45;39.05;101223.33;110915;1263;21914;-82
2022/03/26 08:08:42;;;;;;;36.20;31.80;;;;;;;17.62;38.57;101216.00;111098;1260;22342;-80
2022/03/26 08:11:20;;;;;;;40.80;30.40;;;;;;;17.80;38.11;101209.58;111191;1262;21979;-80
2022/03/26 08:14:07;;;;;;;59.50;32.70;;;;;;;17.98;37.96;101210.66;111481;1260;21947;-81
2022/03/26 08:16:58;;;;;;;48.10;31.60;;;;;;;18.15;37.04;101211.18;111302;1260;22267;-81
2022/03/26 08:19:55;;;;;;;;;;;;;;;;;;;;;
2022/03/26 08:22:41;;;;;;;45.40;29.20;;;;;;;18.38;36.50;101214.31;111117;1260;21984;-82
2022/03/26 08:28:31;;;;;;;42.40;27.00;;;;;;;18.88;36.00;101195.81;111063;1261;21941;-81
2022/03/26 08:31:37;;;;;;;31.20;23.90;;;;;;;19.01;35.17;101202.02;111327;1260;21904;-82
2022/03/26 08:34:27;;;;;;;37.00;25.20;;;;;;;19.12;35.12;101199.28;110942;1264;21987;-83
2022/03/26 08:37:35;;;;;;;;;;;;;;;;;;;;;
2022/03/26 08:40:36;;;;;;;;;;;;;;;;;;;;;
2022/03/26 08:43:15;;;;;;;58.80;23.30;;;;;;;19.74;33.87;101206.55;110370;1270;21953;-85
2022/03/26 08:46:34;;;;;;;;;;;;;;;;;;;;;
2022/03/26 08:49:30;;;;;;;26.10;17.40;;;;;;;19.95;33.23;101202.58;110178;1273;21957;-80
2022/03/26 08:52:23;;;;;;;;;;;;;;;;;;;;;
2022/03/26 08:55:44;;;;;;;37.10;17.60;;;;;;;20.08;32.18;101214.73;110256;1273;21935;-81
2022/03/26 08:58:38;;;;;;;18.20;15.20;;;;;;;20.10;32.74;101201.80;110016;1276;21998;-76
2022/03/26 09:01:31;;;;;;;;;;;;;;;;;;;;;
2022/03/26 09:05:01;;;;;;;58.10;16.20;;;;;;;20.91;32.13;101196.52;110497;1269;22192;-78
2022/03/26 09:08:32;;;;;;;;;;;;;;;;;;;;;
2022/03/26 09:11:45;;;;;;;32.50;11.60;;;;;;;21.21;30.72;101201.95;110408;1270;22013;-79
2022/03/26 09:16:23;;;;;;;;;;;;;;;;;;;;;
2022/03/26 09:19:58;;;;;;;19.90;11.20;;;;;;;21.65;30.15;101193.90;110049;1276;22390;-78
2022/03/26 09:26:17;;;;;;;27.80;11.80;;;;;;;21.90;29.42;101194.25;109830;1284;21978;-81
2022/03/26 09:30:13;;;;;;;23.10;13.30;;;;;;;21.67;29.84;101191.66;109881;1284;21815;-78
2022/03/26 09:33:32;;;;;;;72.70;16.30;;;;;;;21.65;30.12;101196.88;109866;1283;21925;-78
2022/03/26 09:37:01;;;;;;;21.50;11.80;;;;;;;21.57;30.10;101194.05;109736;1282;21923;-79
2022/03/26 09:40:04;;;;;;;23.70;12.50;;;;;;;21.60;30.35;101198.35;109923;1282;22018;-79
2022/03/26 09:43:29;;;;;;;;;;;;;;;;;;;;;
2022/03/26 09:47:03;;;;;;;;;;;;;;;;;;;;;
2022/03/26 09:50:33;;;;;;;23.30;12.00;;;;;;;21.55;30.13;101174.50;109657;1287;21932;-78
2022/03/26 09:53:21;;;;;;;27.80;13.60;;;;;;;21.55;30.13;101170.58;108574;1294;21843;-78
2022/03/26 09:55:52;;;;;;;26.40;13.90;;;;;;;21.61;30.22;101168.17;109170;1289;21916;-78
2022/03/26 09:58:57;;;;;;;23.70;13.90;;;;;;;21.90;30.06;101166.60;109441;1286;21858;-78
2022/03/26 10:02:11;;;;;;;30.70;11.10;;;;;;;22.42;30.09;101177.33;109590;1283;22096;-79
2022/03/26 10:05:07;;;;;;;32.70;9.80;;;;;;;22.98;28.87;101172.80;109962;1279;21709;-79
2022/03/26 10:08:18;;;;;;;30.00;9.50;;;;;;;23.33;28.40;101172.51;110088;1273;21968;-82
2022/03/26 10:11:28;;;;;;;23.60;9.80;;;;;;;23.64;27.34;101172.52;110336;1273;22235;-80
2022/03/26 10:14:13;;;;;;;;;;;;;;;;;;;;;
2022/03/26 10:17:24;;;;;;;55.40;12.50;;;;;;;24.01;26.91;101170.18;110492;1270;22441;-80
2022/03/26 10:20:30;;;;;;;;;;;;;;;;;;;;;
2022/03/26 10:23:51;;;;;;;;;;;;;;;;;;;;;
2022/03/26 10:26:58;;;;;;;;;;;;;;;;;;;;;
2022/03/26 10:30:03;;;;;;;35.30;9.80;;;;;;;23.59;25.17;101151.33;110185;1276;21972;-80
2022/03/26 10:32:48;;;;;;;33.40;11.40;;;;;;;22.91;25.52;101154.86;110074;1277;22324;-80
2022/03/26 10:36:08;;;;;;;27.50;10.50;;;;;;;21.98;26.18;101143.92;109970;1279;22284;-80
2022/03/26 10:38:53;;;;;;;19.80;9.20;;;;;;;21.12;26.78;101150.35;109982;1279;22252;-79
2022/03/26 10:45:42;;;;;;;22.90;10.50;;;;;;;20.10;28.50;101150.80;109983;1279;22048;-79
2022/03/26 10:49:08;;;;;;;;;;;;;;;19.71;28.80;101149.11;110165;1273;21940;-81
2022/03/26 10:52:20;;;;;;;36.90;11.90;;;;;;;19.24;29.23;101145.44;110185;1275;21983;-80
2022/03/26 10:54:52;;;;;;;45.10;15.50;;;;;;;18.86;29.56;101151.77;110356;1271;22335;-80
2022/03/26 10:57:42;;;;;;;;;;;;;;;;;;;;;
2022/03/26 11:00:33;;;;;;;31.50;13.80;;;;;;;18.38;30.62;101139.14;110159;1276;21935;-79
2022/03/26 11:03:16;;;;;;;35.00;11.30;;;;;;;18.25;31.10;101132.77;110108;1273;21993;-80
2022/03/26 11:06:08;;;;;;;;;;;;;;;;;;;;;
2022/03/26 11:08:53;;;;;;;25.80;12.80;;;;;;;18.35;31.31;101135.83;109974;1279;22156;-80
2022/03/26 11:12:47;;;;;;;21.00;13.00;;;;;;;18.18;31.31;101141.06;109905;1276;22407;-79
2022/03/26 11:15:40;;;;;;;20.60;13.60;;;;;;;17.91;31.86;101130.92;109968;1279;21880;-79
2022/03/26 11:19:21;;;;;;;37.30;12.80;;;;;;;17.72;32.44;101124.70;109984;1275;21866;-80
2022/03/26 11:22:46;;;;;;;21.40;12.40;;;;;;;17.61;33.06;101120.75;109940;1279;21997;-79
2022/03/26 11:25:41;;;;;;;18.20;11.70;;;;;;;17.50;33.11;101131.27;109460;1288;21953;-79
2022/03/26 11:28:42;;;;;;;28.00;11.50;;;;;;;17.37;33.50;101115.17;109104;1289;22084;-80
2022/03/26 11:31:57;;;;;;;20.70;13.40;;;;;;;17.20;33.73;101121.34;109049;1291;21851;-84
2022/03/26 11:35:18;;;;;;;21.20;11.50;;;;;;;17.00;34.31;101127.85;109024;1289;21899;-78
2022/03/26 11:38:01;;;;;;;33.40;13.70;;;;;;;16.93;34.84;101125.73;108855;1292;21885;-79
2022/03/26 11:41:13;;;;;;;18.80;11.40;;;;;;;16.85;34.93;101126.33;108641;1292;22284;-79
2022/03/26 11:43:56;;;;;;;18.20;11.80;;;;;;;16.77;35.23;101125.01;108086;1295;21878;-79
2022/03/26 11:52:38;;;;;;;23.20;10.60;;;;;;;16.64;35.69;101131.53;108970;1292;21943;-80
2022/03/26 11:55:24;;;;;;;28.60;11.20;;;;;;;16.53;35.98;101129.55;108516;1291;22090;-79
2022/03/26 11:58:21;;;;;;;18.30;10.60;;;;;;;16.37;36.65;101138.23;109199;1286;21942;-79
2022/03/26 12:01:15;;;;;;;98.90;19.30;;;;;;;16.29;37.14;101136.73;109604;1273;21926;-79
2022/03/26 12:04:09;;;;;;;23.40;11.50;;;;;;;16.18;37.46;101137.70;110274;1273;21937;-79
2022/03/26 12:06:53;;;;;;;26.00;12.10;;;;;;;16.02;38.06;101139.09;110309;1273;21946;-80
2022/03/26 12:10:09;;;;;;;35.00;11.90;;;;;;;15.88;38.68;101133.89;110260;1272;21915;-79
2022/03/26 12:13:03;;;;;;;20.50;12.10;;;;;;;15.83;39.10;101134.80;110249;1266;21913;-80
2022/03/26 12:15:36;;;;;;;24.80;12.30;;;;;;;15.93;39.24;101135.23;110207;1272;21994;-80
2022/03/26 12:18:36;;;;;;;27.60;11.90;;;;;;;15.92;39.36;101135.22;109981;1278;21981;-79
2022/03/26 12:21:28;;;;;;;20.90;11.00;;;;;;;15.91;39.65;101137.91;109912;1282;21952;-81
2022/03/26 12:24:38;;;;;;;30.60;12.20;;;;;;;15.83;39.79;101136.23;109886;1283;22352;-79
2022/03/26 12:27:10;;;;;;;21.40;13.50;;;;;;;15.61;40.50;101131.52;109806;1285;21935;-80
2022/03/26 12:30:14;;;;;;;28.10;14.50;;;;;;;15.43;41.16;101140.76;109871;1284;21888;-79
2022/03/26 12:33:00;;;;;;;14.90;10.20;;;;;;;15.33;41.80;101143.55;109598;1283;21826;-79
2022/03/26 12:36:22;;;;;;;18.60;11.70;;;;;;;15.26;42.16;101140.80;109496;1284;21971;-79
2022/03/26 12:39:15;;;;;;;18.40;12.20;;;;;;;15.16;42.46;101142.02;109861;1285;22030;-79
2022/03/26 12:41:58;;;;;;;29.10;13.20;;;;;;;15.12;43.02;101151.18;109819;1285;22339;-79
2022/03/26 12:44:50;;;;;;;16.50;12.00;;;;;;;15.11;43.16;101159.63;109829;1285;21937;-80
2022/03/26 12:48:12;;;;;;;17.90;12.60;;;;;;;15.05;43.55;101159.37;109836;1285;22436;-80
2022/03/26 12:50:52;;;;;;;33.70;12.00;;;;;;;14.99;44.35;101159.95;109823;1282;21893;-80
2022/03/26 12:54:10;;;;;;;;;;;;;;;;;;;;;
2022/03/26 12:57:19;;;;;;;;;;;;;;;;;;;;;
2022/03/26 12:59:56;;;;;;;26.30;11.40;;;;;;;14.35;46.83;101163.65;110000;1276;21884;-81
2022/03/26 13:02:39;;;;;;;20.70;11.20;;;;;;;14.29;47.25;101163.25;110182;1276;21969;-80
2022/03/26 13:05:31;;;;;;;17.20;10.40;;;;;;;14.27;47.73;101169.83;110261;1275;22321;-81
2022/03/26 13:08:45;;;;;;;;;;;;;;;;;;;;;
2022/03/26 13:13:12;;;;;;;27.70;12.30;;;;;;;14.10;48.67;101166.96;110318;1273;21811;-79
2022/03/26 13:16:24;;;;;;;29.80;15.30;;;;;;;13.99;48.84;101173.80;110179;1275;21884;-79
2022/03/26 13:19:13;;;;;;;22.00;16.50;;;;;;;13.89;48.74;101183.10;110199;1275;22050;-80
2022/03/26 13:21:55;;;;;;;26.30;18.20;;;;;;;13.77;49.01;101183.52;110070;1276;21979;-80
2022/03/26 13:24:48;;;;;;;33.50;19.70;;;;;;;13.72;49.12;101192.45;109985;1276;22039;-80
2022/03/26 13:27:26;;;;;;;25.10;19.30;;;;;;;13.59;49.36;101187.74;109972;1279;21987;-79
2022/03/26 13:30:14;;;;;;;25.00;17.70;;;;;;;13.52;49.52;101190.14;109983;1278;21819;-79
2022/03/26 13:33:02;;;;;;;29.40;19.30;;;;;;;13.41;49.70;101187.94;109992;1279;22007;-79
2022/03/26 13:35:49;;;;;;;30.10;17.70;;;;;;;13.32;49.91;101193.34;110032;1278;22237;-79
2022/03/26 13:38:52;;;;;;;32.20;23.60;;;;;;;13.32;50.08;101195.58;109981;1279;21877;-81
2022/03/26 13:41:41;;;;;;;35.10;22.70;;;;;;;13.28;50.20;101199.46;109986;1279;22250;-80
2022/03/26 13:44:30;;;;;;;28.80;22.80;;;;;;;13.23;50.11;101199.33;109906;1279;21905;-79
2022/03/26 13:47:07;;;;;;;27.10;23.00;;;;;;;13.17;50.22;101201.69;109933;1281;22739;-80
2022/03/26 13:50:11;;;;;;;28.00;22.50;;;;;;;13.14;50.44;101216.52;109997;1279;21894;-81
2022/03/26 13:53:02;;;;;;;;;;;;;;;;;;;;;
2022/03/26 13:56:57;;;;;;;27.90;22.10;;;;;;;12.89;50.60;101218.25;110004;1278;21920;-79
2022/03/26 14:00:15;;;;;;;29.20;25.00;;;;;;;12.79;51.05;101218.85;110055;1276;21986;-80
2022/03/26 14:02:55;;;;;;;41.70;25.60;;;;;;;12.80;51.22;101223.13;110014;1278;21983;-80
2022/03/26 14:06:11;;;;;;;30.00;26.70;;;;;;;12.80;51.05;101225.93;110449;1272;22364;-80
2022/03/26 14:09:37;;;;;;;29.60;26.20;;;;;;;12.75;51.33;101228.09;110001;1276;21924;-80
2022/03/26 14:12:29;;;;;;;33.00;25.80;;;;;;;12.80;51.60;101240.82;110153;1273;22029;-82
2022/03/26 14:15:50;;;;;;;30.10;26.80;;;;;;;12.80;51.32;101240.55;110410;1272;22377;-81
2022/03/26 14:19:59;;;;;;;;;;;;;;;;;;;;;
2022/03/26 14:23:25;;;;;;;;;;;;;;;;;;;;;
2022/03/26 14:26:40;;;;;;;;;;;;;;;;;;;;;
2022/03/26 14:30:08;;;;;;;30.40;27.30;;;;;;;12.64;51.76;101241.71;110003;1277;21877;-80
2022/03/26 14:33:04;;;;;;;31.30;26.70;;;;;;;12.63;51.75;101238.52;110005;1273;21924;-81
2022/03/26 14:35:36;;;;;;;29.40;26.60;;;;;;;12.64;51.59;101231.31;110073;1276;22275;-80
2022/03/26 14:38:22;;;;;;;29.20;26.30;;;;;;;12.59;51.52;101227.92;110037;1276;21835;-78
2022/03/26 14:40:55;;;;;;;29.80;26.70;;;;;;;12.56;51.75;101225.66;110520;1270;21957;-80
2022/03/26 14:43:32;;;;;;;29.90;26.60;;;;;;;12.56;52.01;101232.02;110481;1270;21907;-81
2022/03/26 14:46:03;;;;;;;30.00;26.80;;;;;;;12.57;52.10;101232.74;110595;1270;21960;-82
2022/03/26 14:48:36;;;;;;;32.20;27.60;;;;;;;12.54;52.06;101232.71;110522;1270;21990;-81
2022/03/26 14:51:08;;;;;;;30.20;27.00;;;;;;;12.54;52.20;101241.73;110467;1270;21960;-80
2022/03/26 14:53:40;;;;;;;32.70;24.50;;;;;;;12.52;52.25;101250.29;110781;1260;21817;-81
2022/03/26 14:56:17;;;;;;;36.40;27.10;;;;;;;12.45;52.20;101253.99;111588;1260;21817;-81
2022/03/26 14:58:48;;;;;;;31.00;24.60;;;;;;;12.33;52.37;101253.14;110829;1265;21966;-81
2022/03/26 15:01:25;;;;;;;30.80;25.10;;;;;;;12.23;52.54;101256.39;110415;1270;22330;-81
2022/03/26 15:03:56;;;;;;;32.60;24.20;;;;;;;12.14;52.81;101258.39;110587;1268;22256;-81
2022/03/26 15:06:27;;;;;;;;;;;;;;;12.05;52.92;101267.43;110365;1272;21967;-81
2022/03/26 15:09:03;;;;;;;28.10;24.10;;;;;;;11.91;53.25;101269.39;110318;1272;21835;-82
2022/03/26 15:12:01;;;;;;;29.80;24.00;;;;;;;11.88;53.41;101272.86;110000;1277;22388;-81
2022/03/26 15:14:53;;;;;;;29.90;23.90;;;;;;;11.87;53.51;101272.02;110000;1278;21894;-80
2022/03/26 15:17:33;;;;;;;26.60;23.80;;;;;;;11.86;53.68;101281.82;110038;1275;21949;-81
2022/03/26 15:20:10;;;;;;;28.70;23.90;;;;;;;11.85;53.97;101284.94;110050;1275;22008;-80
2022/03/26 15:22:49;;;;;;;27.70;22.90;;;;;;;11.91;54.32;101289.80;110096;1275;22376;-80
2022/03/26 15:25:33;;;;;;;23.80;20.00;;;;;;;12.00;54.24;101290.69;110234;1269;22027;-81
2022/03/26 15:28:08;;;;;;;29.70;23.10;;;;;;;12.06;54.06;101294.81;110234;1273;22294;-82
2022/03/26 15:30:59;;;;;;;;;;;;;;;;;;;;;
2022/03/26 15:34:07;;;;;;;23.10;17.50;;;;;;;12.12;53.23;101297.95;110776;1266;22070;-81
2022/03/26 15:37:12;;;;;;;;;;;;;;;;;;;;;
2022/03/26 15:40:00;;;;;;;23.20;18.70;;;;;;;11.87;53.30;101307.00;110652;1269;22367;-81
2022/03/26 15:42:48;;;;;;;28.60;18.80;;;;;;;11.82;53.49;101307.45;110657;1267;22411;-81
2022/03/26 15:45:51;;;;;;;;;;;;;;;11.82;53.35;101315.59;110954;1262;21941;-79
2022/03/26 15:55:03;;;;;;;15.80;10.60;;;;;;;11.59;53.03;101324.00;110269;1270;21979;-80
2022/03/26 15:58:02;;;;;;;12.00;10.70;;;;;;;11.54;52.71;101327.46;110287;1273;21947;-79
2022/03/26 16:00:34;;;;;;;16.80;10.10;;;;;;;11.48;52.80;101323.30;110568;1272;21978;-80
2022/03/26 16:03:18;;;;;;;;;;;;;;;;;;;;;
2022/03/26 16:06:06;;;;;;;12.20;10.20;;;;;;;11.47;52.83;101328.58;110279;1270;22458;-81
2022/03/26 16:09:08;;;;;;;13.30;10.10;;;;;;;11.46;52.75;101332.27;110358;1270;21982;-81
2022/03/26 16:11:53;;;;;;;14.20;12.50;;;;;;;11.46;52.77;101343.98;110510;1270;21982;-82
2022/03/26 16:14:39;;;;;;;15.30;10.50;;;;;;;11.41;52.58;101343.05;110264;1273;21965;-81
2022/03/26 16:17:39;;;;;;;20.50;14.10;;;;;;;11.35;52.47;101349.62;110455;1272;21929;-81
2022/03/26 16:20:27;;;;;;;26.80;14.60;;;;;;;11.27;52.66;101346.55;110469;1272;22020;-79
2022/03/26 16:23:11;;;;;;;14.30;12.20;;;;;;;11.22;52.78;101346.44;110543;1272;22354;-81
2022/03/26 16:25:40;;;;;;;21.00;14.20;;;;;;;11.22;52.87;101348.25;110097;1273;21959;-80
2022/03/26 16:28:19;;;;;;;15.00;12.90;;;;;;;11.19;52.78;101352.08;110598;1270;21996;-81
2022/03/26 16:31:00;;;;;;;20.60;14.50;;;;;;;11.14;52.92;101356.26;110234;1270;22024;-81
2022/03/26 16:33:40;;;;;;;15.40;13.90;;;;;;;11.10;53.08;101359.60;110744;1265;21933;-80
2022/03/26 16:36:24;;;;;;;21.00;16.80;;;;;;;11.07;53.28;101366.41;110841;1266;21955;-81
2022/03/26 16:39:00;;;;;;;19.80;15.70;;;;;;;11.05;53.40;101368.73;110797;1267;22278;-81
2022/03/26 16:41:38;;;;;;;17.50;15.60;;;;;;;11.04;53.55;101371.80;110299;1270;21858;-80
2022/03/26 16:44:17;;;;;;;16.30;14.60;;;;;;;11.00;53.75;101371.54;110679;1266;22290;-81